sensor_id;sensor_type;location;lat;lon;timestamp;P1;durP1;ratioP1;P2;durP2;ratioP2
21326;SDS011;10822;51.532;6.770;2023-12-29T00:00:52;10.52;;;2.53;;
21326;SDS011;10822;51.532;6.770;2023-12-29T00:03:18;10.00;;;2.42;;
21326;SDS011;10822;51.532;6.770;2023-12-29T00:05:44;11.85;;;2.60;;
21326;SDS011;10822;51.532;6.770;2023-12-29T00:08:10;9.75;;;2.28;;
21326;SDS011;10822;51.532;6.770;2023-12-29T00:10:36;8.80;;;2.58;;
21326;SDS011;10822;51.532;6.770;2023-12-29T00:13:02;10.27;;;2.65;;
21326;SDS011;10822;51.532;6.770;2023-12-29T00:15:28;9.70;;;2.78;;
21326;SDS011;10822;51.532;6.770;2023-12-29T00:17:54;9.15;;;2.50;;
21326;SDS011;10822;51.532;6.770;2023-12-29T00:20:20;11.18;;;2.60;;
21326;SDS011;10822;51.532;6.770;2023-12-29T00:22:46;10.80;;;3.33;;
21326;SDS011;10822;51.532;6.770;2023-12-29T00:25:12;11.98;;;2.83;;
21326;SDS011;10822;51.532;6.770;2023-12-29T00:27:38;6.07;;;2.17;;
21326;SDS011;10822;51.532;6.770;2023-12-29T00:30:04;9.80;;;3.72;;
21326;SDS011;10822;51.532;6.770;2023-12-29T00:32:30;11.75;;;3.38;;
21326;SDS011;10822;51.532;6.770;2023-12-29T00:34:56;9.00;;;2.33;;
21326;SDS011;10822;51.532;6.770;2023-12-29T00:37:22;8.50;;;1.50;;
21326;SDS011;10822;51.532;6.770;2023-12-29T00:39:48;5.63;;;2.05;;
21326;SDS011;10822;51.532;6.770;2023-12-29T00:42:14;7.07;;;1.77;;
21326;SDS011;10822;51.532;6.770;2023-12-29T00:44:40;10.82;;;2.20;;
21326;SDS011;10822;51.532;6.770;2023-12-29T00:47:06;7.63;;;1.80;;
21326;SDS011;10822;51.532;6.770;2023-12-29T00:49:32;7.00;;;1.73;;
21326;SDS011;10822;51.532;6.770;2023-12-29T00:51:58;4.35;;;1.60;;
21326;SDS011;10822;51.532;6.770;2023-12-29T00:54:25;8.70;;;2.58;;
21326;SDS011;10822;51.532;6.770;2023-12-29T00:56:51;9.15;;;2.45;;
21326;SDS011;10822;51.532;6.770;2023-12-29T00:59:19;13.52;;;2.80;;
21326;SDS011;10822;51.532;6.770;2023-12-29T01:01:45;8.65;;;2.20;;
21326;SDS011;10822;51.532;6.770;2023-12-29T01:04:12;7.60;;;1.63;;
21326;SDS011;10822;51.532;6.770;2023-12-29T01:06:37;9.07;;;2.08;;
21326;SDS011;10822;51.532;6.770;2023-12-29T01:09:03;11.73;;;2.60;;
21326;SDS011;10822;51.532;6.770;2023-12-29T01:11:29;7.93;;;2.00;;
21326;SDS011;10822;51.532;6.770;2023-12-29T01:13:55;11.38;;;2.45;;
21326;SDS011;10822;51.532;6.770;2023-12-29T01:16:21;11.68;;;4.13;;
21326;SDS011;10822;51.532;6.770;2023-12-29T01:18:47;10.20;;;2.30;;
21326;SDS011;10822;51.532;6.770;2023-12-29T01:21:13;7.82;;;1.60;;
21326;SDS011;10822;51.532;6.770;2023-12-29T01:23:39;4.47;;;1.45;;
21326;SDS011;10822;51.532;6.770;2023-12-29T01:26:05;4.72;;;1.42;;
21326;SDS011;10822;51.532;6.770;2023-12-29T01:28:31;7.40;;;2.05;;
21326;SDS011;10822;51.532;6.770;2023-12-29T01:30:57;7.90;;;1.45;;
21326;SDS011;10822;51.532;6.770;2023-12-29T01:33:23;4.60;;;1.50;;
21326;SDS011;10822;51.532;6.770;2023-12-29T01:35:49;12.20;;;2.30;;
21326;SDS011;10822;51.532;6.770;2023-12-29T01:38:15;9.10;;;2.10;;
21326;SDS011;10822;51.532;6.770;2023-12-29T01:40:44;12.57;;;2.10;;
21326;SDS011;10822;51.532;6.770;2023-12-29T01:43:10;5.68;;;1.80;;
21326;SDS011;10822;51.532;6.770;2023-12-29T01:45:36;8.98;;;1.70;;
21326;SDS011;10822;51.532;6.770;2023-12-29T01:48:02;5.15;;;1.90;;
21326;SDS011;10822;51.532;6.770;2023-12-29T01:50:29;6.13;;;1.67;;
21326;SDS011;10822;51.532;6.770;2023-12-29T01:52:55;10.70;;;2.33;;
21326;SDS011;10822;51.532;6.770;2023-12-29T01:55:22;9.10;;;2.75;;
21326;SDS011;10822;51.532;6.770;2023-12-29T01:57:48;8.57;;;1.80;;
21326;SDS011;10822;51.532;6.770;2023-12-29T02:00:14;9.40;;;3.13;;
21326;SDS011;10822;51.532;6.770;2023-12-29T02:02:41;9.25;;;2.10;;
21326;SDS011;10822;51.532;6.770;2023-12-29T02:05:07;7.65;;;1.77;;
21326;SDS011;10822;51.532;6.770;2023-12-29T02:07:34;5.70;;;1.90;;
21326;SDS011;10822;51.532;6.770;2023-12-29T02:10:00;8.55;;;1.67;;
21326;SDS011;10822;51.532;6.770;2023-12-29T02:12:26;9.75;;;1.92;;
21326;SDS011;10822;51.532;6.770;2023-12-29T02:14:52;6.05;;;1.80;;
21326;SDS011;10822;51.532;6.770;2023-12-29T02:17:21;6.15;;;1.63;;
21326;SDS011;10822;51.532;6.770;2023-12-29T02:19:48;9.57;;;2.10;;
21326;SDS011;10822;51.532;6.770;2023-12-29T02:22:15;10.95;;;2.35;;
21326;SDS011;10822;51.532;6.770;2023-12-29T02:24:45;5.68;;;1.80;;
21326;SDS011;10822;51.532;6.770;2023-12-29T02:29:45;9.82;;;1.90;;
21326;SDS011;10822;51.532;6.770;2023-12-29T02:32:13;11.93;;;2.28;;
21326;SDS011;10822;51.532;6.770;2023-12-29T02:34:41;7.47;;;1.95;;
21326;SDS011;10822;51.532;6.770;2023-12-29T02:37:08;9.85;;;1.70;;
21326;SDS011;10822;51.532;6.770;2023-12-29T02:39:35;7.78;;;1.75;;
21326;SDS011;10822;51.532;6.770;2023-12-29T02:42:01;12.23;;;2.03;;
21326;SDS011;10822;51.532;6.770;2023-12-29T02:44:27;8.93;;;2.05;;
21326;SDS011;10822;51.532;6.770;2023-12-29T02:46:53;6.00;;;1.95;;
21326;SDS011;10822;51.532;6.770;2023-12-29T02:49:19;7.50;;;2.17;;
21326;SDS011;10822;51.532;6.770;2023-12-29T02:51:44;11.60;;;2.45;;
21326;SDS011;10822;51.532;6.770;2023-12-29T02:54:13;10.15;;;2.78;;
21326;SDS011;10822;51.532;6.770;2023-12-29T02:56:39;11.82;;;3.70;;
21326;SDS011;10822;51.532;6.770;2023-12-29T02:59:04;13.75;;;3.05;;
21326;SDS011;10822;51.532;6.770;2023-12-29T03:01:30;8.38;;;2.20;;
21326;SDS011;10822;51.532;6.770;2023-12-29T03:03:56;10.65;;;2.47;;
21326;SDS011;10822;51.532;6.770;2023-12-29T03:06:22;9.13;;;2.15;;
21326;SDS011;10822;51.532;6.770;2023-12-29T03:08:49;9.20;;;2.40;;
21326;SDS011;10822;51.532;6.770;2023-12-29T03:11:15;8.18;;;2.58;;
21326;SDS011;10822;51.532;6.770;2023-12-29T03:13:42;12.60;;;1.95;;
21326;SDS011;10822;51.532;6.770;2023-12-29T03:16:08;8.52;;;2.22;;
21326;SDS011;10822;51.532;6.770;2023-12-29T03:18:34;10.73;;;2.28;;
21326;SDS011;10822;51.532;6.770;2023-12-29T03:21:03;10.57;;;1.90;;
21326;SDS011;10822;51.532;6.770;2023-12-29T03:23:29;8.25;;;2.30;;
21326;SDS011;10822;51.532;6.770;2023-12-29T03:25:55;10.27;;;2.22;;
21326;SDS011;10822;51.532;6.770;2023-12-29T03:28:21;8.63;;;1.95;;
21326;SDS011;10822;51.532;6.770;2023-12-29T03:30:47;10.32;;;2.10;;
21326;SDS011;10822;51.532;6.770;2023-12-29T03:33:13;8.27;;;1.75;;
21326;SDS011;10822;51.532;6.770;2023-12-29T03:35:39;8.75;;;2.00;;
21326;SDS011;10822;51.532;6.770;2023-12-29T03:38:05;7.50;;;1.40;;
21326;SDS011;10822;51.532;6.770;2023-12-29T03:40:31;7.97;;;1.58;;
21326;SDS011;10822;51.532;6.770;2023-12-29T03:42:57;7.90;;;2.00;;
21326;SDS011;10822;51.532;6.770;2023-12-29T03:45:23;9.32;;;1.77;;
21326;SDS011;10822;51.532;6.770;2023-12-29T03:47:49;8.05;;;1.58;;
21326;SDS011;10822;51.532;6.770;2023-12-29T03:50:15;6.63;;;1.50;;
21326;SDS011;10822;51.532;6.770;2023-12-29T03:52:41;6.03;;;1.35;;
21326;SDS011;10822;51.532;6.770;2023-12-29T03:55:07;6.63;;;1.80;;
21326;SDS011;10822;51.532;6.770;2023-12-29T03:57:33;7.22;;;1.38;;
21326;SDS011;10822;51.532;6.770;2023-12-29T03:59:59;4.00;;;1.30;;
21326;SDS011;10822;51.532;6.770;2023-12-29T04:02:25;3.65;;;1.30;;
21326;SDS011;10822;51.532;6.770;2023-12-29T04:04:51;7.97;;;2.15;;
21326;SDS011;10822;51.532;6.770;2023-12-29T04:07:17;4.93;;;1.70;;
21326;SDS011;10822;51.532;6.770;2023-12-29T04:09:43;7.22;;;1.63;;
21326;SDS011;10822;51.532;6.770;2023-12-29T04:12:09;6.55;;;1.60;;
21326;SDS011;10822;51.532;6.770;2023-12-29T04:14:35;8.93;;;1.85;;
21326;SDS011;10822;51.532;6.770;2023-12-29T04:17:01;13.48;;;1.92;;
21326;SDS011;10822;51.532;6.770;2023-12-29T04:19:28;7.03;;;1.50;;
21326;SDS011;10822;51.532;6.770;2023-12-29T04:21:54;7.32;;;1.73;;
21326;SDS011;10822;51.532;6.770;2023-12-29T04:24:20;10.38;;;1.60;;
21326;SDS011;10822;51.532;6.770;2023-12-29T04:26:46;9.02;;;1.67;;
21326;SDS011;10822;51.532;6.770;2023-12-29T04:29:12;5.72;;;1.48;;
21326;SDS011;10822;51.532;6.770;2023-12-29T04:31:38;7.80;;;1.80;;
21326;SDS011;10822;51.532;6.770;2023-12-29T04:34:04;4.90;;;1.33;;
21326;SDS011;10822;51.532;6.770;2023-12-29T04:36:30;9.93;;;1.92;;
21326;SDS011;10822;51.532;6.770;2023-12-29T04:38:56;4.00;;;1.13;;
21326;SDS011;10822;51.532;6.770;2023-12-29T04:41:22;8.43;;;1.65;;
21326;SDS011;10822;51.532;6.770;2023-12-29T04:43:48;6.32;;;1.52;;
21326;SDS011;10822;51.532;6.770;2023-12-29T04:46:14;6.75;;;1.63;;
21326;SDS011;10822;51.532;6.770;2023-12-29T04:48:40;8.20;;;1.58;;
21326;SDS011;10822;51.532;6.770;2023-12-29T04:51:05;3.90;;;1.40;;
21326;SDS011;10822;51.532;6.770;2023-12-29T04:53:31;6.38;;;1.40;;
21326;SDS011;10822;51.532;6.770;2023-12-29T04:55:57;5.18;;;1.27;;
21326;SDS011;10822;51.532;6.770;2023-12-29T04:58:24;4.97;;;1.23;;
21326;SDS011;10822;51.532;6.770;2023-12-29T05:00:50;7.88;;;1.58;;
21326;SDS011;10822;51.532;6.770;2023-12-29T05:03:16;5.30;;;1.48;;
21326;SDS011;10822;51.532;6.770;2023-12-29T05:05:41;8.05;;;1.77;;
21326;SDS011;10822;51.532;6.770;2023-12-29T05:08:07;6.43;;;1.60;;
21326;SDS011;10822;51.532;6.770;2023-12-29T05:10:33;7.63;;;1.58;;
21326;SDS011;10822;51.532;6.770;2023-12-29T05:13:01;7.70;;;1.35;;
21326;SDS011;10822;51.532;6.770;2023-12-29T05:15:27;5.93;;;1.77;;
21326;SDS011;10822;51.532;6.770;2023-12-29T05:17:53;6.63;;;1.23;;
21326;SDS011;10822;51.532;6.770;2023-12-29T05:20:19;6.38;;;1.52;;
21326;SDS011;10822;51.532;6.770;2023-12-29T05:22:45;9.82;;;1.58;;
21326;SDS011;10822;51.532;6.770;2023-12-29T05:25:11;8.27;;;1.25;;
21326;SDS011;10822;51.532;6.770;2023-12-29T05:27:37;5.30;;;1.30;;
21326;SDS011;10822;51.532;6.770;2023-12-29T05:30:03;10.27;;;1.33;;
21326;SDS011;10822;51.532;6.770;2023-12-29T05:32:29;9.50;;;1.48;;
21326;SDS011;10822;51.532;6.770;2023-12-29T05:34:55;13.90;;;1.75;;
21326;SDS011;10822;51.532;6.770;2023-12-29T05:37:21;10.95;;;1.67;;
21326;SDS011;10822;51.532;6.770;2023-12-29T05:39:47;8.52;;;1.50;;
21326;SDS011;10822;51.532;6.770;2023-12-29T05:42:13;6.65;;;1.10;;
21326;SDS011;10822;51.532;6.770;2023-12-29T05:44:39;8.32;;;1.60;;
21326;SDS011;10822;51.532;6.770;2023-12-29T05:47:05;8.85;;;1.55;;
21326;SDS011;10822;51.532;6.770;2023-12-29T05:49:31;5.45;;;1.10;;
21326;SDS011;10822;51.532;6.770;2023-12-29T05:52:02;6.50;;;1.40;;
21326;SDS011;10822;51.532;6.770;2023-12-29T05:54:28;5.80;;;1.45;;
21326;SDS011;10822;51.532;6.770;2023-12-29T05:56:54;9.23;;;1.58;;
21326;SDS011;10822;51.532;6.770;2023-12-29T05:59:20;8.75;;;1.63;;
21326;SDS011;10822;51.532;6.770;2023-12-29T06:01:46;6.30;;;1.30;;
21326;SDS011;10822;51.532;6.770;2023-12-29T06:04:12;6.63;;;1.60;;
21326;SDS011;10822;51.532;6.770;2023-12-29T06:06:38;6.53;;;1.60;;
21326;SDS011;10822;51.532;6.770;2023-12-29T06:09:04;5.90;;;1.48;;
21326;SDS011;10822;51.532;6.770;2023-12-29T06:11:30;7.32;;;1.60;;
21326;SDS011;10822;51.532;6.770;2023-12-29T06:13:56;7.28;;;1.33;;
21326;SDS011;10822;51.532;6.770;2023-12-29T06:16:22;10.98;;;2.17;;
21326;SDS011;10822;51.532;6.770;2023-12-29T06:18:50;7.63;;;1.75;;
21326;SDS011;10822;51.532;6.770;2023-12-29T06:21:16;9.32;;;2.08;;
21326;SDS011;10822;51.532;6.770;2023-12-29T06:23:42;6.88;;;1.38;;
21326;SDS011;10822;51.532;6.770;2023-12-29T06:26:13;9.13;;;1.52;;
21326;SDS011;10822;51.532;6.770;2023-12-29T06:28:40;7.13;;;1.85;;
21326;SDS011;10822;51.532;6.770;2023-12-29T06:31:06;7.05;;;1.42;;
21326;SDS011;10822;51.532;6.770;2023-12-29T06:33:31;8.23;;;1.63;;
21326;SDS011;10822;51.532;6.770;2023-12-29T06:35:57;5.38;;;1.45;;
21326;SDS011;10822;51.532;6.770;2023-12-29T06:38:23;6.63;;;1.40;;
21326;SDS011;10822;51.532;6.770;2023-12-29T06:40:49;8.13;;;1.40;;
21326;SDS011;10822;51.532;6.770;2023-12-29T06:43:15;6.50;;;1.88;;
21326;SDS011;10822;51.532;6.770;2023-12-29T06:45:41;7.45;;;1.60;;
21326;SDS011;10822;51.532;6.770;2023-12-29T06:48:07;8.52;;;2.00;;
21326;SDS011;10822;51.532;6.770;2023-12-29T06:50:33;7.65;;;1.70;;
21326;SDS011;10822;51.532;6.770;2023-12-29T06:52:59;11.88;;;2.15;;
21326;SDS011;10822;51.532;6.770;2023-12-29T06:55:25;8.73;;;1.60;;
21326;SDS011;10822;51.532;6.770;2023-12-29T06:57:51;15.35;;;5.72;;
21326;SDS011;10822;51.532;6.770;2023-12-29T07:00:17;16.17;;;4.57;;
21326;SDS011;10822;51.532;6.770;2023-12-29T07:02:43;10.55;;;2.15;;
21326;SDS011;10822;51.532;6.770;2023-12-29T07:05:09;8.85;;;2.22;;
21326;SDS011;10822;51.532;6.770;2023-12-29T07:07:35;6.97;;;1.50;;
21326;SDS011;10822;51.532;6.770;2023-12-29T07:10:02;8.15;;;1.38;;
21326;SDS011;10822;51.532;6.770;2023-12-29T07:12:28;6.28;;;1.45;;
21326;SDS011;10822;51.532;6.770;2023-12-29T07:14:54;6.88;;;1.48;;
21326;SDS011;10822;51.532;6.770;2023-12-29T07:17:20;8.30;;;1.52;;
21326;SDS011;10822;51.532;6.770;2023-12-29T07:19:46;7.82;;;1.70;;
21326;SDS011;10822;51.532;6.770;2023-12-29T07:22:12;8.57;;;1.83;;
21326;SDS011;10822;51.532;6.770;2023-12-29T07:24:38;5.53;;;1.42;;
21326;SDS011;10822;51.532;6.770;2023-12-29T07:27:05;9.32;;;2.03;;
21326;SDS011;10822;51.532;6.770;2023-12-29T07:29:32;7.32;;;2.00;;
21326;SDS011;10822;51.532;6.770;2023-12-29T07:31:58;10.95;;;1.92;;
21326;SDS011;10822;51.532;6.770;2023-12-29T07:34:24;8.30;;;1.90;;
21326;SDS011;10822;51.532;6.770;2023-12-29T07:36:50;8.00;;;2.20;;
21326;SDS011;10822;51.532;6.770;2023-12-29T07:39:17;8.68;;;2.10;;
21326;SDS011;10822;51.532;6.770;2023-12-29T07:41:43;7.57;;;2.40;;
21326;SDS011;10822;51.532;6.770;2023-12-29T07:44:10;8.07;;;2.08;;
21326;SDS011;10822;51.532;6.770;2023-12-29T07:46:37;12.43;;;2.33;;
21326;SDS011;10822;51.532;6.770;2023-12-29T07:49:03;8.95;;;2.90;;
21326;SDS011;10822;51.532;6.770;2023-12-29T07:51:29;8.18;;;2.58;;
21326;SDS011;10822;51.532;6.770;2023-12-29T07:53:56;7.72;;;2.13;;
21326;SDS011;10822;51.532;6.770;2023-12-29T07:56:22;9.25;;;2.67;;
21326;SDS011;10822;51.532;6.770;2023-12-29T07:58:48;11.20;;;3.50;;
21326;SDS011;10822;51.532;6.770;2023-12-29T08:01:14;7.68;;;2.25;;
21326;SDS011;10822;51.532;6.770;2023-12-29T08:03:40;10.65;;;3.60;;
21326;SDS011;10822;51.532;6.770;2023-12-29T08:06:06;8.07;;;2.05;;
21326;SDS011;10822;51.532;6.770;2023-12-29T08:08:32;8.70;;;2.30;;
21326;SDS011;10822;51.532;6.770;2023-12-29T08:10:59;9.77;;;3.22;;
21326;SDS011;10822;51.532;6.770;2023-12-29T08:13:25;10.45;;;4.22;;
21326;SDS011;10822;51.532;6.770;2023-12-29T08:15:51;6.78;;;2.17;;
21326;SDS011;10822;51.532;6.770;2023-12-29T08:18:17;6.82;;;2.67;;
21326;SDS011;10822;51.532;6.770;2023-12-29T08:20:43;11.15;;;3.50;;
21326;SDS011;10822;51.532;6.770;2023-12-29T08:23:09;7.68;;;2.15;;
21326;SDS011;10822;51.532;6.770;2023-12-29T08:25:35;10.38;;;2.80;;
21326;SDS011;10822;51.532;6.770;2023-12-29T08:28:04;16.42;;;3.70;;
21326;SDS011;10822;51.532;6.770;2023-12-29T08:30:30;10.85;;;3.75;;
21326;SDS011;10822;51.532;6.770;2023-12-29T08:32:56;12.52;;;4.70;;
21326;SDS011;10822;51.532;6.770;2023-12-29T08:35:22;14.77;;;4.97;;
21326;SDS011;10822;51.532;6.770;2023-12-29T08:37:48;15.30;;;6.40;;
21326;SDS011;10822;51.532;6.770;2023-12-29T08:40:14;13.57;;;5.38;;
21326;SDS011;10822;51.532;6.770;2023-12-29T08:42:41;18.27;;;5.38;;
21326;SDS011;10822;51.532;6.770;2023-12-29T08:45:07;18.40;;;5.53;;
21326;SDS011;10822;51.532;6.770;2023-12-29T08:47:33;12.05;;;3.80;;
21326;SDS011;10822;51.532;6.770;2023-12-29T08:49:59;15.18;;;4.97;;
21326;SDS011;10822;51.532;6.770;2023-12-29T08:52:26;7.05;;;3.03;;
21326;SDS011;10822;51.532;6.770;2023-12-29T08:54:52;9.10;;;1.98;;
21326;SDS011;10822;51.532;6.770;2023-12-29T08:57:18;5.25;;;1.58;;
21326;SDS011;10822;51.532;6.770;2023-12-29T08:59:44;5.18;;;1.63;;
21326;SDS011;10822;51.532;6.770;2023-12-29T09:02:10;9.10;;;1.35;;
21326;SDS011;10822;51.532;6.770;2023-12-29T09:04:36;7.72;;;1.98;;
21326;SDS011;10822;51.532;6.770;2023-12-29T09:07:02;5.60;;;1.27;;
21326;SDS011;10822;51.532;6.770;2023-12-29T09:09:30;6.82;;;1.85;;
21326;SDS011;10822;51.532;6.770;2023-12-29T09:11:56;5.53;;;1.52;;
21326;SDS011;10822;51.532;6.770;2023-12-29T09:14:22;6.68;;;1.63;;
21326;SDS011;10822;51.532;6.770;2023-12-29T09:16:48;4.35;;;1.52;;
21326;SDS011;10822;51.532;6.770;2023-12-29T09:19:15;4.78;;;2.17;;
21326;SDS011;10822;51.532;6.770;2023-12-29T09:21:41;5.15;;;1.63;;
21326;SDS011;10822;51.532;6.770;2023-12-29T09:24:07;3.88;;;1.23;;
21326;SDS011;10822;51.532;6.770;2023-12-29T09:26:33;2.83;;;1.17;;
21326;SDS011;10822;51.532;6.770;2023-12-29T09:28:59;6.75;;;1.23;;
21326;SDS011;10822;51.532;6.770;2023-12-29T09:31:25;3.35;;;1.17;;
21326;SDS011;10822;51.532;6.770;2023-12-29T09:33:51;2.88;;;0.88;;
21326;SDS011;10822;51.532;6.770;2023-12-29T09:36:17;2.13;;;0.88;;
21326;SDS011;10822;51.532;6.770;2023-12-29T09:38:43;2.53;;;0.90;;
21326;SDS011;10822;51.532;6.770;2023-12-29T09:41:11;2.47;;;0.80;;
21326;SDS011;10822;51.532;6.770;2023-12-29T09:43:39;2.35;;;0.80;;
21326;SDS011;10822;51.532;6.770;2023-12-29T09:46:07;1.98;;;0.65;;
21326;SDS011;10822;51.532;6.770;2023-12-29T09:48:34;1.95;;;0.40;;
21326;SDS011;10822;51.532;6.770;2023-12-29T09:51:02;2.40;;;0.50;;
21326;SDS011;10822;51.532;6.770;2023-12-29T09:53:29;2.85;;;0.60;;
21326;SDS011;10822;51.532;6.770;2023-12-29T09:55:55;2.53;;;0.82;;
21326;SDS011;10822;51.532;6.770;2023-12-29T09:58:23;1.48;;;0.50;;
21326;SDS011;10822;51.532;6.770;2023-12-29T10:00:50;1.00;;;0.40;;
21326;SDS011;10822;51.532;6.770;2023-12-29T10:03:17;1.35;;;0.47;;
21326;SDS011;10822;51.532;6.770;2023-12-29T10:05:43;2.17;;;0.50;;
21326;SDS011;10822;51.532;6.770;2023-12-29T10:08:10;2.00;;;0.63;;
21326;SDS011;10822;51.532;6.770;2023-12-29T10:10:37;2.20;;;0.63;;
21326;SDS011;10822;51.532;6.770;2023-12-29T10:13:03;1.80;;;0.45;;
21326;SDS011;10822;51.532;6.770;2023-12-29T10:23:14;0.47;;;0.47;;
21326;SDS011;10822;51.532;6.770;2023-12-29T10:25:43;0.90;;;0.50;;
21326;SDS011;10822;51.532;6.770;2023-12-29T10:28:09;1.10;;;0.50;;
21326;SDS011;10822;51.532;6.770;2023-12-29T10:30:35;1.75;;;0.52;;
21326;SDS011;10822;51.532;6.770;2023-12-29T10:33:02;1.67;;;0.60;;
21326;SDS011;10822;51.532;6.770;2023-12-29T10:35:29;1.60;;;0.68;;
21326;SDS011;10822;51.532;6.770;2023-12-29T10:38:14;0.63;;;0.47;;
21326;SDS011;10822;51.532;6.770;2023-12-29T10:40:40;2.38;;;0.70;;
21326;SDS011;10822;51.532;6.770;2023-12-29T10:43:07;3.58;;;1.50;;
21326;SDS011;10822;51.532;6.770;2023-12-29T10:45:34;2.85;;;1.23;;
21326;SDS011;10822;51.532;6.770;2023-12-29T10:48:03;2.00;;;0.88;;
21326;SDS011;10822;51.532;6.770;2023-12-29T10:50:29;2.90;;;0.90;;
21326;SDS011;10822;51.532;6.770;2023-12-29T10:53:12;2.40;;;0.90;;
21326;SDS011;10822;51.532;6.770;2023-12-29T10:55:38;2.97;;;0.88;;
21326;SDS011;10822;51.532;6.770;2023-12-29T10:58:04;3.08;;;1.00;;
21326;SDS011;10822;51.532;6.770;2023-12-29T11:00:31;0.98;;;0.68;;
21326;SDS011;10822;51.532;6.770;2023-12-29T11:02:57;1.88;;;0.70;;
21326;SDS011;10822;51.532;6.770;2023-12-29T11:05:25;3.78;;;1.20;;
21326;SDS011;10822;51.532;6.770;2023-12-29T11:07:52;4.38;;;1.40;;
21326;SDS011;10822;51.532;6.770;2023-12-29T11:10:19;3.55;;;0.77;;
21326;SDS011;10822;51.532;6.770;2023-12-29T11:12:46;3.22;;;1.00;;
21326;SDS011;10822;51.532;6.770;2023-12-29T11:15:13;3.42;;;0.88;;
21326;SDS011;10822;51.532;6.770;2023-12-29T11:17:39;2.75;;;1.20;;
21326;SDS011;10822;51.532;6.770;2023-12-29T11:20:14;2.85;;;1.23;;
21326;SDS011;10822;51.532;6.770;2023-12-29T11:22:41;2.75;;;1.20;;
21326;SDS011;10822;51.532;6.770;2023-12-29T11:25:07;1.88;;;0.57;;
21326;SDS011;10822;51.532;6.770;2023-12-29T11:27:34;2.72;;;0.90;;
21326;SDS011;10822;51.532;6.770;2023-12-29T11:30:00;3.47;;;0.73;;
21326;SDS011;10822;51.532;6.770;2023-12-29T11:32:49;2.10;;;0.75;;
21326;SDS011;10822;51.532;6.770;2023-12-29T11:35:16;2.03;;;0.52;;
21326;SDS011;10822;51.532;6.770;2023-12-29T11:40:19;2.78;;;0.95;;
21326;SDS011;10822;51.532;6.770;2023-12-29T11:42:45;3.00;;;0.95;;
21326;SDS011;10822;51.532;6.770;2023-12-29T11:45:31;2.17;;;0.70;;
21326;SDS011;10822;51.532;6.770;2023-12-29T11:48:01;2.00;;;0.77;;
21326;SDS011;10822;51.532;6.770;2023-12-29T11:52:57;3.22;;;0.68;;
21326;SDS011;10822;51.532;6.770;2023-12-29T11:55:30;2.15;;;0.88;;
21326;SDS011;10822;51.532;6.770;2023-12-29T11:57:57;2.28;;;0.82;;
21326;SDS011;10822;51.532;6.770;2023-12-29T12:05:50;2.90;;;0.60;;
21326;SDS011;10822;51.532;6.770;2023-12-29T12:08:26;3.75;;;0.70;;
21326;SDS011;10822;51.532;6.770;2023-12-29T12:10:52;2.78;;;0.63;;
21326;SDS011;10822;51.532;6.770;2023-12-29T12:13:41;3.58;;;0.80;;
21326;SDS011;10822;51.532;6.770;2023-12-29T12:16:06;3.25;;;0.90;;
21326;SDS011;10822;51.532;6.770;2023-12-29T12:18:32;3.45;;;0.70;;
21326;SDS011;10822;51.532;6.770;2023-12-29T12:20:59;2.92;;;0.70;;
21326;SDS011;10822;51.532;6.770;2023-12-29T12:23:26;4.25;;;1.02;;
21326;SDS011;10822;51.532;6.770;2023-12-29T12:25:58;3.25;;;1.42;;
21326;SDS011;10822;51.532;6.770;2023-12-29T12:28:25;2.88;;;1.17;;
21326;SDS011;10822;51.532;6.770;2023-12-29T12:30:51;10.90;;;3.38;;
21326;SDS011;10822;51.532;6.770;2023-12-29T12:33:19;4.13;;;1.50;;
21326;SDS011;10822;51.532;6.770;2023-12-29T12:35:44;3.78;;;1.50;;
21326;SDS011;10822;51.532;6.770;2023-12-29T12:38:15;6.10;;;1.75;;
21326;SDS011;10822;51.532;6.770;2023-12-29T12:40:46;6.25;;;1.88;;
21326;SDS011;10822;51.532;6.770;2023-12-29T12:43:15;3.60;;;1.27;;
21326;SDS011;10822;51.532;6.770;2023-12-29T12:45:42;6.28;;;1.42;;
21326;SDS011;10822;51.532;6.770;2023-12-29T12:48:24;4.75;;;1.60;;
21326;SDS011;10822;51.532;6.770;2023-12-29T12:50:53;4.07;;;1.30;;
21326;SDS011;10822;51.532;6.770;2023-12-29T12:53:22;3.83;;;1.60;;
21326;SDS011;10822;51.532;6.770;2023-12-29T12:55:48;7.07;;;1.10;;
21326;SDS011;10822;51.532;6.770;2023-12-29T12:58:15;2.40;;;0.70;;
21326;SDS011;10822;51.532;6.770;2023-12-29T13:00:41;3.75;;;1.05;;
21326;SDS011;10822;51.532;6.770;2023-12-29T13:03:07;2.55;;;1.20;;
21326;SDS011;10822;51.532;6.770;2023-12-29T13:05:35;2.22;;;1.17;;
21326;SDS011;10822;51.532;6.770;2023-12-29T13:08:01;5.38;;;1.30;;
21326;SDS011;10822;51.532;6.770;2023-12-29T13:10:28;5.13;;;1.40;;
21326;SDS011;10822;51.532;6.770;2023-12-29T13:12:55;4.45;;;1.00;;
21326;SDS011;10822;51.532;6.770;2023-12-29T13:15:21;3.25;;;1.20;;
21326;SDS011;10822;51.532;6.770;2023-12-29T13:17:51;2.22;;;1.17;;
21326;SDS011;10822;51.532;6.770;2023-12-29T13:20:17;5.40;;;1.35;;
21326;SDS011;10822;51.532;6.770;2023-12-29T13:22:46;5.90;;;1.30;;
21326;SDS011;10822;51.532;6.770;2023-12-29T13:25:12;3.25;;;1.20;;
21326;SDS011;10822;51.532;6.770;2023-12-29T13:27:43;3.80;;;1.40;;
21326;SDS011;10822;51.532;6.770;2023-12-29T13:30:09;3.90;;;1.65;;
21326;SDS011;10822;51.532;6.770;2023-12-29T13:32:37;3.78;;;1.20;;
21326;SDS011;10822;51.532;6.770;2023-12-29T13:35:18;4.72;;;1.20;;
21326;SDS011;10822;51.532;6.770;2023-12-29T13:37:50;3.03;;;1.13;;
21326;SDS011;10822;51.532;6.770;2023-12-29T13:42:44;4.80;;;1.50;;
21326;SDS011;10822;51.532;6.770;2023-12-29T13:45:11;5.38;;;1.70;;
21326;SDS011;10822;51.532;6.770;2023-12-29T13:47:37;6.38;;;1.40;;
21326;SDS011;10822;51.532;6.770;2023-12-29T13:50:04;2.88;;;1.50;;
21326;SDS011;10822;51.532;6.770;2023-12-29T13:52:30;5.20;;;1.58;;
21326;SDS011;10822;51.532;6.770;2023-12-29T13:54:56;3.45;;;1.70;;
21326;SDS011;10822;51.532;6.770;2023-12-29T13:57:32;4.43;;;1.30;;
21326;SDS011;10822;51.532;6.770;2023-12-29T14:00:20;3.42;;;1.13;;
21326;SDS011;10822;51.532;6.770;2023-12-29T14:08:10;5.10;;;1.63;;
21326;SDS011;10822;51.532;6.770;2023-12-29T14:10:43;4.50;;;1.58;;
21326;SDS011;10822;51.532;6.770;2023-12-29T14:13:11;5.18;;;1.67;;
21326;SDS011;10822;51.532;6.770;2023-12-29T14:15:41;3.40;;;1.48;;
21326;SDS011;10822;51.532;6.770;2023-12-29T14:20:33;5.65;;;1.60;;
21326;SDS011;10822;51.532;6.770;2023-12-29T14:23:03;6.28;;;1.42;;
21326;SDS011;10822;51.532;6.770;2023-12-29T14:25:30;4.35;;;1.50;;
21326;SDS011;10822;51.532;6.770;2023-12-29T14:27:59;4.47;;;1.60;;
21326;SDS011;10822;51.532;6.770;2023-12-29T14:30:25;3.92;;;1.60;;
21326;SDS011;10822;51.532;6.770;2023-12-29T14:32:53;5.53;;;2.13;;
21326;SDS011;10822;51.532;6.770;2023-12-29T14:35:19;7.40;;;1.83;;
21326;SDS011;10822;51.532;6.770;2023-12-29T14:37:45;2.55;;;1.15;;
21326;SDS011;10822;51.532;6.770;2023-12-29T14:40:11;3.58;;;1.20;;
21326;SDS011;10822;51.532;6.770;2023-12-29T14:42:37;3.28;;;1.30;;
21326;SDS011;10822;51.532;6.770;2023-12-29T14:45:05;3.10;;;1.42;;
21326;SDS011;10822;51.532;6.770;2023-12-29T14:47:32;3.13;;;1.10;;
21326;SDS011;10822;51.532;6.770;2023-12-29T14:49:58;1.55;;;0.93;;
21326;SDS011;10822;51.532;6.770;2023-12-29T14:52:24;4.30;;;1.10;;
21326;SDS011;10822;51.532;6.770;2023-12-29T14:54:51;3.35;;;0.90;;
21326;SDS011;10822;51.532;6.770;2023-12-29T14:57:17;2.45;;;0.75;;
21326;SDS011;10822;51.532;6.770;2023-12-29T14:59:43;2.03;;;0.80;;
21326;SDS011;10822;51.532;6.770;2023-12-29T15:02:09;1.85;;;0.73;;
21326;SDS011;10822;51.532;6.770;2023-12-29T15:04:35;3.75;;;0.80;;
21326;SDS011;10822;51.532;6.770;2023-12-29T15:07:02;1.70;;;0.60;;
21326;SDS011;10822;51.532;6.770;2023-12-29T15:09:28;1.30;;;0.60;;
21326;SDS011;10822;51.532;6.770;2023-12-29T15:11:55;1.05;;;0.63;;
21326;SDS011;10822;51.532;6.770;2023-12-29T15:14:21;1.00;;;0.50;;